Time;durP1;ratioP1;P1;durP2;ratioP2;P2;SDS_P1;SDS_P2;PMS_P1;PMS_P2;Temp;Humidity;BMP_temperature;BMP_pressure;BME280_temperature;BME280_humidity;BME280_pressure;Samples;Min_cycle;Max_cycle;Signal;HPM_P1;HPM_P2
2022/11/26 00:01:22;;;;;;;26.60;12.40;;;;;;;6.91;94.31;101359.09;4959631;28;20440;-72
2022/11/26 00:03:52;;;;;;;24.42;12.75;;;;;;;6.98;94.20;101362.50;4953493;29;20052;-71
2022/11/26 00:06:41;;;;;;;23.83;12.88;;;;;;;6.92;93.91;101368.06;4953171;29;20414;-70
2022/11/26 00:09:19;;;;;;;22.38;12.05;;;;;;;6.95;93.93;101376.56;4953471;29;20051;-71
2022/11/26 00:11:47;;;;;;;25.77;12.63;;;;;;;6.99;93.25;101380.50;4952733;29;20059;-70
2022/11/26 00:14:16;;;;;;;22.10;11.65;;;;;;;6.91;92.54;101369.97;4954235;29;20043;-71
2022/11/26 00:16:43;;;;;;;19.90;11.35;;;;;;;6.85;92.86;101374.44;4952597;29;20506;-69
2022/11/26 00:19:11;;;;;;;21.08;11.38;;;;;;;6.86;93.06;101372.56;4972970;28;20055;-70
2022/11/26 00:21:41;;;;;;;20.02;10.40;;;;;;;6.92;93.29;101381.66;4972431;28;20051;-70
2022/11/26 00:24:27;;;;;;;20.08;11.10;;;;;;;6.96;93.21;101378.25;4954789;28;20047;-70
2022/11/26 00:26:58;;;;;;;18.15;11.00;;;;;;;6.92;92.94;101377.06;4953072;29;20058;-70
2022/11/26 00:29:26;;;;;;;15.82;9.88;;;;;;;6.89;92.41;101368.53;4953575;29;20058;-70
2022/11/26 00:31:54;;;;;;;18.63;9.55;;;;;;;6.97;92.75;101369.03;4951676;28;20051;-70
2022/11/26 00:34:22;;;;;;;14.73;8.38;;;;;;;7.02;90.98;101368.31;4938447;29;20051;-70
2022/11/26 00:36:49;;;;;;;15.57;9.48;;;;;;;7.02;91.11;101362.03;4953157;29;20055;-70
2022/11/26 00:39:23;;;;;;;16.70;10.15;;;;;;;6.97;91.07;101366.31;4953209;29;20489;-71
2022/11/26 00:41:52;;;;;;;14.13;8.25;;;;;;;6.96;91.46;101361.94;4952537;29;20051;-70
2022/11/26 00:44:22;;;;;;;17.02;9.35;;;;;;;6.88;91.67;101370.44;4952744;29;20047;-70
2022/11/26 00:46:51;;;;;;;15.98;9.10;;;;;;;6.90;91.11;101373.75;4961928;28;20062;-71
2022/11/26 00:49:19;;;;;;;18.38;8.95;;;;;;;6.99;91.67;101364.16;4972798;28;20051;-70
2022/11/26 00:51:47;;;;;;;14.77;9.50;;;;;;;6.96;91.86;101364.66;4975813;28;20059;-70
2022/11/26 00:54:17;;;;;;;16.35;9.20;;;;;;;7.01;91.81;101366.66;4974112;28;20050;-70
2022/11/26 00:56:47;;;;;;;20.38;10.00;;;;;;;7.02;92.06;101371.03;4974341;28;20040;-70
2022/11/26 00:59:18;;;;;;;16.20;9.80;;;;;;;6.98;92.31;101373.41;4976034;28;20047;-70
2022/11/26 01:01:46;;;;;;;17.90;9.57;;;;;;;6.97;91.66;101368.19;4976556;28;20412;-70
2022/11/26 01:04:14;;;;;;;14.15;9.20;;;;;;;6.84;91.87;101377.41;4973647;28;20054;-70
2022/11/26 01:06:44;;;;;;;16.17;9.07;;;;;;;6.85;91.76;101382.59;4975662;28;20247;-70
2022/11/26 01:09:20;;;;;;;18.63;8.90;;;;;;;6.86;91.77;101384.25;4975732;28;20051;-71
2022/11/26 01:11:48;;;;;;;21.20;9.93;;;;;;;6.81;92.61;101386.88;4973391;28;20139;-70
2022/11/26 01:14:21;;;;;;;18.02;8.93;;;;;;;6.82;92.08;101388.53;4973802;28;20050;-70
2022/11/26 01:16:51;;;;;;;15.52;8.88;;;;;;;6.82;92.25;101382.25;4974886;28;20046;-70
2022/11/26 01:19:19;;;;;;;12.73;7.30;;;;;;;6.83;91.61;101386.63;4975256;28;20086;-70
2022/11/26 01:21:48;;;;;;;13.75;8.40;;;;;;;6.81;91.92;101392.31;4963024;28;20074;-70
2022/11/26 01:24:15;;;;;;;15.05;8.85;;;;;;;6.83;91.62;101398.34;4968559;28;20489;-70
2022/11/26 01:26:43;;;;;;;17.45;8.95;;;;;;;6.92;91.48;101390.66;4975320;28;20062;-70
2022/11/26 01:29:16;;;;;;;16.20;9.52;;;;;;;6.95;91.88;101398.34;4975447;28;20047;-71
2022/11/26 01:31:45;;;;;;;16.58;8.23;;;;;;;6.92;91.96;101392.56;4975434;28;20525;-70
2022/11/26 01:34:12;;;;;;;13.45;8.45;;;;;;;6.94;93.12;101393.16;4973330;28;20398;-71
2022/11/26 01:36:41;;;;;;;12.48;8.90;;;;;;;6.90;93.02;101391.97;4958632;28;20047;-70
2022/11/26 01:39:09;;;;;;;18.70;8.13;;;;;;;6.92;91.32;101392.56;4966441;28;20078;-71
2022/11/26 01:42:14;;;;;;;17.38;8.75;;;;;;;6.97;91.91;101390.78;4975829;28;20508;-70
2022/11/26 01:44:42;;;;;;;13.75;8.32;;;;;;;6.98;92.07;101392.44;4972759;28;20405;-77
2022/11/26 01:47:21;;;;;;;14.20;8.57;;;;;;;6.96;92.16;101400.03;4955191;29;20398;-77
2022/11/26 01:50:38;;;;;;;15.05;8.25;;;;;;;6.99;91.24;101407.72;4956349;29;20070;-77
2022/11/26 01:53:14;;;;;;;13.30;8.45;;;;;;;6.87;91.81;101401.44;4953866;29;20446;-77
2022/11/26 01:55:49;;;;;;;12.40;8.32;;;;;;;6.90;91.58;101408.28;4937158;29;20044;-76
2022/11/26 01:58:27;;;;;;;17.83;8.10;;;;;;;6.91;91.45;101402.63;4936269;29;20050;-77
2022/11/26 02:00:55;;;;;;;11.05;7.35;;;;;;;6.96;90.81;101412.78;4936370;29;20074;-76
2022/11/26 02:03:23;;;;;;;11.75;7.05;;;;;;;6.94;90.93;101412.22;4936889;29;20043;-75
2022/11/26 02:06:15;;;;;;;12.85;6.90;;;;;;;6.92;90.69;101411.59;4954109;29;20051;-77
2022/11/26 02:08:43;;;;;;;11.60;7.15;;;;;;;6.91;91.80;101415.38;4955910;29;20052;-77
2022/11/26 02:11:22;;;;;;;16.95;7.82;;;;;;;6.88;91.52;101413.16;4938816;29;20055;-77
2022/11/26 02:13:58;;;;;;;11.43;6.63;;;;;;;6.84;90.40;101413.59;4956535;28;20414;-77
2022/11/26 02:17:01;;;;;;;10.95;7.00;;;;;;;6.83;91.29;101422.00;4975054;28;20050;-77
2022/11/26 02:19:51;;;;;;;12.90;6.78;;;;;;;6.83;91.56;101424.72;4945975;28;20051;-77
2022/11/26 02:22:37;;;;;;;12.60;6.78;;;;;;;6.78;91.89;101427.31;4974547;28;20398;-77
2022/11/26 02:25:46;;;;;;;13.75;6.90;;;;;;;6.74;92.15;101429.66;4973212;28;20493;-77
2022/11/26 02:28:31;;;;;;;11.52;6.85;;;;;;;6.67;92.45;101429.78;4957314;28;20050;-77
2022/11/26 02:31:05;;;;;;;12.20;7.03;;;;;;;6.79;91.53;101437.16;4974842;28;20047;-77
2022/11/26 02:33:38;;;;;;;11.93;7.60;;;;;;;6.74;91.85;101437.81;4954875;28;20051;-77
2022/11/26 02:36:16;;;;;;;9.77;7.00;;;;;;;6.66;91.88;101433.56;4972981;28;20053;-77
2022/11/26 02:38:43;;;;;;;10.48;6.63;;;;;;;6.52;91.94;101437.53;4974092;28;20106;-77
2022/11/26 02:41:11;;;;;;;13.65;6.43;;;;;;;6.48;91.99;101439.03;4974655;28;20042;-77
2022/11/26 02:43:39;;;;;;;8.43;6.03;;;;;;;6.52;91.51;101432.09;4970370;28;20405;-76
2022/11/26 02:46:13;;;;;;;11.45;6.05;;;;;;;6.49;91.81;101432.56;4974395;28;20057;-77
2022/11/26 02:48:43;;;;;;;;;;;;;;;6.43;90.83;101428.88;4974315;28;20359;-77
2022/11/26 02:51:20;;;;;;;8.93;6.13;;;;;;;6.37;90.85;101436.06;4963135;28;19922;-77
2022/11/26 02:53:49;;;;;;;8.98;6.18;;;;;;;6.39;91.00;101444.81;4971463;28;20047;-77
2022/11/26 02:56:26;;;;;;;12.98;6.65;;;;;;;6.36;92.35;101453.41;4973436;28;20054;-77
2022/11/26 02:58:56;;;;;;;10.30;5.82;;;;;;;6.40;91.78;101449.19;4973594;28;20489;-77
2022/11/26 03:01:37;;;;;;;9.85;5.95;;;;;;;6.36;91.93;101441.72;4970901;28;20062;-77
2022/11/26 03:04:11;;;;;;;8.27;5.97;;;;;;;6.27;92.33;101449.38;4974225;28;20394;-77
2022/11/26 03:06:40;;;;;;;9.27;5.88;;;;;;;6.28;92.31;101449.16;4973387;28;20494;-77
2022/11/26 03:09:08;;;;;;;10.57;6.97;;;;;;;6.30;92.46;101440.75;4973346;28;20054;-77
2022/11/26 03:11:35;;;;;;;11.82;6.30;;;;;;;6.28;92.69;101442.88;4950910;28;20058;-76
2022/11/26 03:14:03;;;;;;;10.15;6.30;;;;;;;6.24;92.87;101438.94;4953418;28;20406;-76
2022/11/26 03:16:31;;;;;;;8.43;5.57;;;;;;;6.16;92.47;101434.69;4954439;28;20054;-76
2022/11/26 03:18:59;;;;;;;8.70;5.95;;;;;;;6.13;93.15;101448.72;4953650;28;20051;-77
2022/11/26 03:21:27;;;;;;;10.02;5.68;;;;;;;6.12;93.37;101445.16;4953545;28;20491;-76
2022/11/26 03:23:55;;;;;;;9.10;5.80;;;;;;;6.05;93.79;101433.53;4953264;28;20758;-77
2022/11/26 03:26:22;;;;;;;9.32;5.40;;;;;;;6.07;93.63;101442.31;4953880;29;20047;-77
2022/11/26 03:28:50;;;;;;;9.13;5.68;;;;;;;6.04;93.86;101437.31;4953236;29;20055;-77
2022/11/26 03:31:18;;;;;;;6.68;5.45;;;;;;;5.99;93.34;101445.31;4954035;29;20051;-77
2022/11/26 03:33:46;;;;;;;10.60;5.57;;;;;;;6.07;92.26;101442.31;4969579;28;20425;-77
2022/11/26 03:36:13;;;;;;;8.77;5.60;;;;;;;6.10;92.39;101441.84;4973011;28;20050;-77
2022/11/26 03:38:41;;;;;;;10.38;6.03;;;;;;;6.07;93.01;101441.47;4971651;28;20047;-77
2022/11/26 03:41:09;;;;;;;8.02;5.43;;;;;;;6.03;94.08;101452.78;4973423;28;20047;-77
2022/11/26 03:43:37;;;;;;;9.13;5.70;;;;;;;5.95;92.81;101447.66;4970952;28;20051;-77
2022/11/26 03:46:05;;;;;;;8.50;5.43;;;;;;;5.98;92.97;101458.06;4954189;28;20082;-77
2022/11/26 03:48:32;;;;;;;9.38;5.07;;;;;;;5.96;92.96;101462.88;4953396;29;20066;-77
2022/11/26 03:51:00;;;;;;;7.32;5.15;;;;;;;6.00;91.91;101460.53;4953808;29;20059;-77
2022/11/26 03:53:28;;;;;;;6.80;4.75;;;;;;;6.02;90.94;101466.59;4964207;28;20054;-77
2022/11/26 03:55:56;;;;;;;8.02;4.88;;;;;;;5.97;90.89;101463.72;4971875;28;20058;-77
2022/11/26 03:58:24;;;;;;;6.78;4.60;;;;;;;5.98;90.77;101468.09;4972967;28;20054;-77
2022/11/26 04:00:52;;;;;;;6.03;4.85;;;;;;;6.05;89.97;101469.72;4972803;28;20512;-77
2022/11/26 04:03:20;;;;;;;7.95;5.03;;;;;;;5.99;90.59;101462.44;4970251;28;20051;-77
2022/11/26 04:05:47;;;;;;;6.65;5.00;;;;;;;6.02;88.87;101478.31;4971189;28;20045;-77
2022/11/26 04:08:15;;;;;;;7.82;4.45;;;;;;;5.93;89.83;101476.94;4955799;28;20509;-77
2022/11/26 04:10:43;;;;;;;7.03;4.57;;;;;;;5.99;89.40;101480.63;4972963;28;20061;-77
2022/11/26 04:13:11;;;;;;;5.22;4.18;;;;;;;5.92;90.57;101478.81;4954221;28;20406;-77
2022/11/26 04:15:39;;;;;;;7.45;4.60;;;;;;;5.97;90.22;101482.75;4973299;28;20046;-77
2022/11/26 04:18:06;;;;;;;7.13;4.75;;;;;;;5.97;90.31;101485.47;4972755;28;20461;-77
2022/11/26 04:20:34;;;;;;;7.40;4.57;;;;;;;5.91;90.94;101469.00;4973104;28;20059;-77
2022/11/26 04:23:02;;;;;;;6.25;4.60;;;;;;;5.89;90.48;101473.00;4970243;28;20051;-77
2022/11/26 04:25:30;;;;;;;7.45;4.78;;;;;;;5.84;90.72;101476.41;4975851;28;20182;-77
2022/11/26 04:27:58;;;;;;;9.20;4.65;;;;;;;5.79;91.21;101477.06;4976929;28;20051;-77
2022/11/26 04:30:26;;;;;;;7.32;4.90;;;;;;;5.76;92.09;101482.97;4977114;28;20501;-77
2022/11/26 04:32:56;;;;;;;8.10;4.85;;;;;;;5.71;91.98;101482.00;4974148;28;20050;-77
2022/11/26 04:35:24;;;;;;;5.70;4.75;;;;;;;5.69;92.18;101493.06;4976947;28;20042;-77
2022/11/26 04:37:52;;;;;;;8.80;5.00;;;;;;;5.64;92.64;101488.28;4969072;28;20124;-76
2022/11/26 04:40:19;;;;;;;8.95;4.68;;;;;;;5.63;92.31;101497.50;4956970;29;20070;-77
2022/11/26 04:42:47;;;;;;;11.68;6.20;;;;;;;5.62;91.32;101506.69;4971746;28;20494;-77
2022/11/26 04:45:15;;;;;;;11.65;5.50;;;;;;;5.70;91.91;101513.75;4956763;29;20402;-77
2022/11/26 04:47:43;;;;;;;18.92;6.78;;;;;;;5.72;89.24;101510.81;4957056;28;20055;-77
2022/11/26 04:50:11;;;;;;;30.55;8.70;;;;;;;5.72;89.00;101516.25;4956869;28;20513;-77
2022/11/26 04:52:39;;;;;;;16.02;6.45;;;;;;;5.78;87.92;101524.31;4963740;28;20055;-77
2022/11/26 04:55:07;;;;;;;19.15;7.15;;;;;;;5.70;88.68;101518.31;4964128;28;20418;-77
2022/11/26 04:57:35;;;;;;;15.05;6.65;;;;;;;5.64;88.85;101515.44;4940145;29;20054;-77
2022/11/26 05:00:04;;;;;;;17.48;6.25;;;;;;;5.59;89.68;101511.75;4956115;28;20051;-76
2022/11/26 05:02:32;;;;;;;15.48;5.80;;;;;;;5.54;89.18;101514.31;4958583;28;20061;-77
2022/11/26 05:05:00;;;;;;;10.38;4.55;;;;;;;5.49;88.72;101517.69;4957137;29;20406;-77
2022/11/26 05:07:28;;;;;;;7.70;4.53;;;;;;;5.54;89.28;101523.28;4957157;28;20051;-77
2022/11/26 05:09:56;;;;;;;7.00;4.05;;;;;;;5.58;88.38;101526.41;4956310;29;20058;-77
2022/11/26 05:12:24;;;;;;;10.85;5.57;;;;;;;5.64;89.25;101537.16;4955768;29;20048;-77
2022/11/26 05:14:52;;;;;;;12.27;4.95;;;;;;;5.61;89.77;101537.63;4956405;29;20494;-77
2022/11/26 05:17:19;;;;;;;9.75;4.63;;;;;;;5.61;89.69;101536.78;4939733;29;20062;-77
2022/11/26 05:19:47;;;;;;;10.23;4.97;;;;;;;5.53;90.79;101539.81;4956838;29;20051;-77
2022/11/26 05:22:15;;;;;;;10.40;4.90;;;;;;;5.49;90.57;101544.84;4960133;28;20046;-77
2022/11/26 05:24:43;;;;;;;5.57;4.03;;;;;;;5.41;91.02;101553.25;4959077;28;20490;-77
2022/11/26 05:27:11;;;;;;;6.47;4.28;;;;;;;5.38;90.68;101549.13;4975868;28;20473;-77
2022/11/26 05:29:39;;;;;;;12.60;5.10;;;;;;;5.46;90.19;101556.13;4975872;28;20061;-77
2022/11/26 05:32:06;;;;;;;11.15;4.55;;;;;;;5.42;90.01;101552.22;4971206;28;20054;-77
2022/11/26 05:34:34;;;;;;;11.52;5.05;;;;;;;5.38;90.24;101559.97;4955765;28;20372;-77
2022/11/26 05:37:02;;;;;;;13.77;6.03;;;;;;;5.36;90.11;101554.75;4956451;29;20040;-77
2022/11/26 05:39:30;;;;;;;9.23;5.35;;;;;;;5.35;90.07;101544.97;4955967;29;20074;-77
2022/11/26 05:41:58;;;;;;;8.40;4.38;;;;;;;5.28;90.25;101552.31;4958646;28;20105;-77
2022/11/26 05:44:29;;;;;;;9.60;4.78;;;;;;;5.37;89.22;101553.72;4975291;28;20054;-77
2022/11/26 05:46:57;;;;;;;7.03;4.32;;;;;;;5.34;90.43;101562.28;4974633;28;20059;-77
2022/11/26 05:49:24;;;;;;;7.78;3.75;;;;;;;5.30;90.83;101561.06;4974758;28;20051;-78
2022/11/26 05:51:52;;;;;;;6.93;4.13;;;;;;;5.32;90.80;101560.88;4971733;28;20644;-77
2022/11/26 05:54:20;;;;;;;7.88;4.00;;;;;;;5.32;90.75;101564.38;4954793;29;20062;-77
2022/11/26 05:56:48;;;;;;;5.65;3.72;;;;;;;5.25;90.70;101575.28;4955051;28;20050;-70
2022/11/26 05:59:16;;;;;;;4.80;3.75;;;;;;;5.22;90.75;101570.31;4939073;29;20510;-69
2022/11/26 06:01:43;;;;;;;4.78;3.30;;;;;;;5.25;90.33;101574.47;4961051;28;20403;-69
2022/11/26 06:04:11;;;;;;;5.00;3.10;;;;;;;5.23;91.49;101573.88;4955796;28;20074;-69
2022/11/26 06:06:39;;;;;;;4.95;3.25;;;;;;;5.25;90.67;101588.84;4955431;28;20391;-68
2022/11/26 06:09:07;;;;;;;5.28;3.58;;;;;;;5.23;90.20;101590.97;4957407;28;20498;-69
2022/11/26 06:11:35;;;;;;;4.63;3.25;;;;;;;5.22;89.52;101597.44;4959301;28;20074;-69
2022/11/26 06:14:03;;;;;;;5.55;3.40;;;;;;;5.27;90.00;101591.34;4953252;29;20062;-69
2022/11/26 06:16:31;;;;;;;4.95;3.45;;;;;;;5.23;90.25;101598.28;4954242;29;20055;-69
2022/11/26 06:18:58;;;;;;;5.38;3.30;;;;;;;5.22;90.66;101593.88;4955786;28;20809;-69
2022/11/26 06:21:26;;;;;;;6.68;3.67;;;;;;;5.15;89.32;101595.81;4974778;28;20042;-69
2022/11/26 06:23:55;;;;;;;4.25;3.10;;;;;;;5.14;89.14;101607.72;4960100;28;20410;-69
2022/11/26 06:26:26;;;;;;;4.53;3.00;;;;;;;5.13;88.84;101606.06;4953834;29;20419;-70
2022/11/26 06:28:54;;;;;;;5.28;3.30;;;;;;;5.14;89.55;101603.16;4965615;28;20058;-70
2022/11/26 06:31:22;;;;;;;3.72;3.15;;;;;;;5.10;89.65;101591.88;4954451;28;20414;-69
2022/11/26 06:33:55;;;;;;;3.45;3.15;;;;;;;5.13;89.85;101600.66;4954659;29;20055;-69
2022/11/26 06:36:23;;;;;;;4.75;3.22;;;;;;;5.18;89.31;101603.53;4954812;29;20406;-71
2022/11/26 06:38:51;;;;;;;5.22;3.22;;;;;;;5.16;89.97;101598.31;4953786;29;20414;-70
2022/11/26 06:41:19;;;;;;;6.78;3.50;;;;;;;5.18;90.34;101600.84;4964230;28;20043;-68
2022/11/26 06:43:47;;;;;;;8.13;3.83;;;;;;;5.18;90.51;101600.84;4952300;29;20058;-69
2022/11/26 06:46:15;;;;;;;5.15;3.25;;;;;;;5.12;91.17;101599.81;4935321;28;20055;-69
2022/11/26 06:48:43;;;;;;;6.38;3.50;;;;;;;5.15;90.46;101596.66;4964934;28;20063;-70
2022/11/26 06:51:15;;;;;;;6.70;3.85;;;;;;;5.14;90.65;101597.72;4949712;28;20734;-69
2022/11/26 06:53:43;;;;;;;6.00;3.53;;;;;;;5.16;89.87;101594.75;4959271;28;20040;-69
2022/11/26 06:56:14;;;;;;;5.80;3.80;;;;;;;5.17;89.67;101591.00;4955318;28;20051;-70
2022/11/26 06:58:47;;;;;;;6.65;3.85;;;;;;;5.19;89.51;101591.63;4972097;28;20050;-69
2022/11/26 07:01:18;;;;;;;4.50;3.47;;;;;;;5.22;90.18;101591.19;4961687;28;20053;-69
2022/11/26 07:03:46;;;;;;;6.10;4.00;;;;;;;5.25;89.92;101588.03;4973645;28;20043;-70
2022/11/26 07:06:25;;;;;;;6.07;3.67;;;;;;;5.29;90.42;101596.56;4969616;28;20040;-70
2022/11/26 07:08:55;;;;;;;6.68;3.92;;;;;;;5.30;90.47;101598.22;4952931;28;20047;-69
2022/11/26 07:11:24;;;;;;;5.38;3.63;;;;;;;5.42;91.06;101603.81;4967886;28;20051;-73
2022/11/26 07:13:52;;;;;;;5.25;3.95;;;;;;;5.46;90.68;101610.44;4962959;28;20039;-73
2022/11/26 07:16:20;;;;;;;7.22;3.72;;;;;;;5.47;90.66;101606.69;4945043;29;20051;-73
2022/11/26 07:18:50;;;;;;;7.22;4.00;;;;;;;5.44;89.72;101616.09;4950007;29;20047;-73
2022/11/26 07:21:19;;;;;;;5.07;4.10;;;;;;;5.58;89.13;101614.09;4942665;28;20129;-73
2022/11/26 07:23:48;;;;;;;4.55;3.80;;;;;;;5.79;89.30;101631.09;4947336;29;20051;-73
2022/11/26 07:26:18;;;;;;;5.15;3.97;;;;;;;5.89;87.43;101625.16;4948352;29;20039;-73
2022/11/26 07:28:47;;;;;;;7.22;4.00;;;;;;;6.23;87.87;101624.84;4952373;29;20055;-74
2022/11/26 07:31:18;;;;;;;5.45;3.67;;;;;;;6.47;87.45;101623.16;4938417;28;20055;-73
2022/11/26 07:33:46;;;;;;;6.32;4.93;;;;;;;6.71;85.99;101626.81;4944715;29;20046;-72
2022/11/26 07:36:18;;;;;;;4.95;3.67;;;;;;;6.68;85.56;101632.72;4954068;29;20058;-71
2022/11/26 07:38:46;;;;;;;8.48;6.55;;;;;;;6.89;86.91;101622.41;4952747;29;20066;-70
2022/11/26 07:41:18;;;;;;;9.25;5.10;;;;;;;7.03;85.79;101657.66;4964154;28;20050;-69
2022/11/26 07:43:46;;;;;;;5.90;3.88;;;;;;;7.22;84.73;101658.41;4951129;29;20039;-69
2022/11/26 07:46:17;;;;;;;7.22;4.45;;;;;;;7.33;83.77;101654.09;4932499;29;20521;-70
2022/11/26 07:48:46;;;;;;;12.18;9.27;;;;;;;7.61;83.38;101663.53;4940725;28;20047;-71
2022/11/26 07:51:28;;;;;;;7.47;5.32;;;;;;;7.86;82.87;101667.97;4934170;29;20048;-70
2022/11/26 07:53:57;;;;;;;11.13;5.72;;;;;;;8.07;83.45;101672.84;4949560;28;20047;-69
2022/11/26 07:56:26;;;;;;;10.40;7.15;;;;;;;8.27;81.03;101673.56;4952712;28;20063;-69
2022/11/26 07:58:54;;;;;;;7.03;5.30;;;;;;;8.32;80.16;101684.59;4951383;29;20495;-69
2022/11/26 08:01:25;;;;;;;8.68;6.13;;;;;;;8.53;81.57;101683.19;4949509;28;20391;-69
2022/11/26 08:03:55;;;;;;;8.75;5.60;;;;;;;8.55;79.64;101689.22;4954182;28;20394;-70
2022/11/26 08:06:27;;;;;;;7.22;4.80;;;;;;;8.65;79.37;101687.81;4952128;29;20062;-70
2022/11/26 08:08:57;;;;;;;4.85;4.22;;;;;;;8.65;79.62;101710.44;4951751;29;20054;-70
2022/11/26 08:11:27;;;;;;;4.13;3.22;;;;;;;8.70;80.24;101696.09;4953315;28;20487;-70
2022/11/26 08:14:05;;;;;;;5.70;4.15;;;;;;;8.91;79.62;101711.03;4952980;28;20043;-69
2022/11/26 08:16:33;;;;;;;6.18;4.03;;;;;;;9.14;79.03;101715.56;4960080;28;20758;-71
2022/11/26 08:19:05;;;;;;;6.45;4.10;;;;;;;9.35;79.77;101716.00;4950986;29;20051;-70
2022/11/26 08:21:33;;;;;;;6.88;4.53;;;;;;;9.40;77.72;101724.25;4950660;29;20035;-69
2022/11/26 08:24:02;;;;;;;8.75;4.90;;;;;;;9.71;77.73;101729.47;4952797;29;20051;-75
2022/11/26 08:26:30;;;;;;;7.32;5.47;;;;;;;9.97;77.59;101731.84;4951152;29;20047;-71
2022/11/26 08:29:05;;;;;;;8.30;5.55;;;;;;;10.16;77.04;101736.00;4950950;29;20387;-71
2022/11/26 08:31:33;;;;;;;6.18;5.13;;;;;;;10.27;76.49;101741.63;4950251;28;20058;-71
2022/11/26 08:34:02;;;;;;;11.57;5.93;;;;;;;10.45;76.01;101743.28;4950802;28;20058;-71
2022/11/26 08:36:31;;;;;;;8.32;5.90;;;;;;;10.54;76.93;101752.75;4951220;29;20054;-71
2022/11/26 08:38:59;;;;;;;8.55;5.53;;;;;;;10.59;74.67;101754.72;4950338;29;20064;-70
2022/11/26 08:41:27;;;;;;;9.35;5.18;;;;;;;10.58;76.65;101759.38;4947520;28;20054;-71
2022/11/26 08:43:55;;;;;;;9.30;5.68;;;;;;;10.57;76.32;101759.63;4951208;29;20047;-70
2022/11/26 08:46:40;;;;;;;7.30;5.45;;;;;;;10.77;75.06;101774.69;4948921;29;20063;-70
2022/11/26 08:49:11;;;;;;;7.95;5.25;;;;;;;10.88;75.11;101768.28;4951288;29;20047;-70
2022/11/26 08:51:39;;;;;;;6.95;5.38;;;;;;;11.08;73.51;101769.63;4950941;29;20047;-70
2022/11/26 08:54:07;;;;;;;8.38;5.03;;;;;;;11.06;74.10;101769.06;4937688;28;20047;-70
2022/11/26 08:56:35;;;;;;;8.23;5.30;;;;;;;11.19;74.26;101768.69;4951833;29;20055;-68
2022/11/26 08:59:03;;;;;;;8.05;5.45;;;;;;;11.28;74.38;101777.28;4951436;28;20058;-68
2022/11/26 09:01:32;;;;;;;11.70;5.18;;;;;;;11.39;72.98;101775.50;4943067;28;20043;-70
2022/11/26 09:04:02;;;;;;;7.07;5.28;;;;;;;11.66;72.80;101785.66;4938253;28;20052;-70
2022/11/26 09:06:31;;;;;;;6.25;5.18;;;;;;;11.78;71.67;101785.53;4935811;29;20055;-69
2022/11/26 09:09:12;;;;;;;10.15;5.03;;;;;;;12.19;69.32;101783.22;4944581;28;20070;-68
2022/11/26 09:11:57;;;;;;;7.75;5.68;;;;;;;12.57;66.61;101791.44;4944498;28;20047;-69
2022/11/26 09:14:28;;;;;;;9.25;5.30;;;;;;;12.68;66.61;101794.25;4940330;28;20042;-69
2022/11/26 09:16:57;;;;;;;8.13;5.40;;;;;;;12.72;65.72;101801.69;4951984;29;20066;-69
2022/11/26 09:19:26;;;;;;;7.53;4.85;;;;;;;12.99;64.96;101805.44;4937989;29;20043;-69
2022/11/26 09:21:54;;;;;;;7.00;4.72;;;;;;;13.08;65.67;101801.09;4941984;29;20062;-69
2022/11/26 09:24:22;;;;;;;7.82;5.05;;;;;;;13.20;64.03;101808.31;4945898;28;20047;-70
2022/11/26 09:26:50;;;;;;;7.60;4.75;;;;;;;13.35;62.94;101815.78;4952971;29;20055;-70
2022/11/26 09:29:21;;;;;;;8.63;5.07;;;;;;;13.28;62.77;101821.53;4937004;29;20040;-70
2022/11/26 09:31:50;;;;;;;8.07;4.78;;;;;;;13.30;64.60;101819.34;4952348;28;20054;-69
2022/11/26 09:34:38;;;;;;;6.18;4.50;;;;;;;13.42;63.52;101822.69;4949842;29;20039;-70
2022/11/26 09:37:07;;;;;;;7.57;5.43;;;;;;;13.57;62.41;101826.63;4956537;28;20116;-71
2022/11/26 09:39:35;;;;;;;7.60;5.45;;;;;;;13.75;62.85;101835.50;4955198;29;20043;-70
2022/11/26 09:42:12;;;;;;;9.82;5.70;;;;;;;13.80;63.42;101832.75;4954199;29;20047;-72
2022/11/26 09:45:07;;;;;;;9.63;5.43;;;;;;;14.01;63.02;101841.03;4956379;29;20043;-71
2022/11/26 09:47:39;;;;;;;11.70;6.05;;;;;;;14.17;62.96;101839.97;4954555;29;20055;-71
2022/11/26 09:50:09;;;;;;;9.65;5.85;;;;;;;14.36;61.83;101847.69;4964235;28;20051;-71
2022/11/26 09:53:00;;;;;;;9.60;7.20;;;;;;;14.48;61.28;101839.97;4957429;28;20054;-71
2022/11/26 09:55:37;;;;;;;9.18;6.63;;;;;;;14.70;61.10;101841.63;4954905;28;20051;-71
2022/11/26 09:58:22;;;;;;;6.93;4.93;;;;;;;14.80;58.18;101840.00;4955791;29;20074;-71
2022/11/26 10:00:56;;;;;;;6.95;4.38;;;;;;;14.94;58.71;101832.81;4955593;28;21619;-70
2022/11/26 10:03:35;;;;;;;6.45;4.28;;;;;;;14.78;57.77;101843.84;4936208;29;20483;-71
2022/11/26 10:06:33;;;;;;;8.90;5.30;;;;;;;14.90;58.06;101842.72;4971943;28;20043;-71
2022/11/26 10:09:28;;;;;;;5.40;4.32;;;;;;;15.03;55.19;101839.41;4974571;28;20058;-71
2022/11/26 10:12:03;;;;;;;3.53;3.22;;;;;;;15.35;53.82;101839.31;4954111;29;20075;-71
2022/11/26 10:14:48;;;;;;;4.45;3.88;;;;;;;15.34;53.51;101826.63;4955530;29;20059;-71
2022/11/26 10:17:41;;;;;;;8.75;4.75;;;;;;;14.99;57.50;101837.47;4938487;29;20055;-71
2022/11/26 10:20:39;;;;;;;9.65;6.28;;;;;;;15.29;57.24;101831.06;4953977;29;20051;-71
2022/11/26 10:23:16;;;;;;;11.27;5.82;;;;;;;15.62;56.51;101840.84;4952716;28;20047;-71
2022/11/26 10:25:53;;;;;;;10.23;4.82;;;;;;;15.47;56.31;101837.06;4974067;28;20054;-72
2022/11/26 10:28:29;;;;;;;8.88;4.88;;;;;;;15.58;54.51;101840.59;4974508;28;20038;-70
2022/11/26 10:31:11;;;;;;;7.65;5.22;;;;;;;15.58;54.56;101835.06;4965996;28;20051;-71
2022/11/26 10:33:57;;;;;;;7.95;4.22;;;;;;;15.62;54.36;101838.91;4974173;28;20054;-70
2022/11/26 10:36:33;;;;;;;12.55;6.65;;;;;;;15.15;53.23;101841.84;4973484;28;20055;-71
2022/11/26 10:39:01;;;;;;;9.50;5.28;;;;;;;15.29;54.51;101833.81;4971342;28;20055;-70
2022/11/26 10:41:32;;;;;;;5.25;4.18;;;;;;;15.45;54.12;101831.00;4971173;28;20577;-71
2022/11/26 10:44:33;;;;;;;9.43;5.53;;;;;;;15.59;55.10;101842.22;4973609;28;20058;-71
2022/11/26 10:47:28;;;;;;;12.98;6.43;;;;;;;15.43;53.35;101831.28;4969002;28;20059;-71
2022/11/26 10:50:02;;;;;;;7.38;4.90;;;;;;;15.59;52.01;101834.78;4953531;29;20063;-72
2022/11/26 10:52:53;;;;;;;8.27;4.93;;;;;;;15.59;52.77;101836.72;4953805;29;20059;-70
2022/11/26 10:55:30;;;;;;;8.27;5.55;;;;;;;15.63;52.17;101831.47;4954072;29;20066;-71
2022/11/26 10:58:06;;;;;;;7.68;4.28;;;;;;;15.77;51.99;101832.50;4951372;29;20062;-70
2022/11/26 11:00:42;;;;;;;8.07;4.30;;;;;;;15.65;51.71;101830.06;4951122;28;20047;-71
2022/11/26 11:03:38;;;;;;;8.93;4.95;;;;;;;15.71;49.20;101836.38;4954434;29;20047;-71
2022/11/26 11:06:41;;;;;;;6.95;3.70;;;;;;;15.25;48.72;101838.22;4952540;29;20495;-71
2022/11/26 11:09:24;;;;;;;4.55;3.42;;;;;;;15.67;48.40;101829.78;4956783;28;20054;-78
2022/11/26 11:12:16;;;;;;;8.45;3.83;;;;;;;14.98;50.82;101833.91;4932755;29;20089;-79
2022/11/26 11:14:45;;;;;;;4.63;3.35;;;;;;;14.76;50.11;101831.47;4951997;29;20509;-80
2022/11/26 11:17:38;;;;;;;6.03;3.42;;;;;;;14.55;50.37;101819.59;4951336;29;20066;-81
2022/11/26 11:20:15;;;;;;;3.72;2.28;;;;;;;14.25;49.91;101835.84;4945223;28;20051;-80
2022/11/26 11:22:44;;;;;;;3.03;2.42;;;;;;;14.29;49.76;101816.84;4951932;29;20062;-79
2022/11/26 11:25:24;;;;;;;3.65;2.00;;;;;;;14.21;48.78;101821.81;4951491;28;20402;-83
2022/11/26 11:27:58;;;;;;;2.33;1.30;;;;;;;14.15;46.57;101811.06;4932092;29;20058;-82
2022/11/26 11:30:31;;;;;;;1.73;1.33;;;;;;;14.35;47.30;101805.56;4951811;29;20046;-85
2022/11/26 11:33:18;;;;;;;1.65;1.25;;;;;;;14.31;45.64;101809.97;4932685;29;20039;-84
2022/11/26 11:36:27;;;;;;;1.33;0.95;;;;;;;14.24;47.13;101798.41;4950854;29;20394;-82
2022/11/26 11:38:58;;;;;;;2.67;1.13;;;;;;;14.22;45.33;101801.44;4908973;29;20045;-87
2022/11/26 11:41:45;;;;;;;0.80;0.70;;;;;;;14.27;45.65;101786.84;4896037;29;20055;-85
2022/11/26 11:44:19;;;;;;;2.05;0.90;;;;;;;14.31;46.65;101776.94;4919548;29;20047;-89
2022/11/26 11:46:50;;;;;;;1.10;0.88;;;;;;;14.37;45.14;101783.25;4951102;29;20058;-89
2022/11/26 11:49:31;;;;;;;0.98;0.65;;;;;;;14.36;45.58;101784.34;4964295;28;20050;-88
2022/11/26 11:52:25;;;;;;;2.33;1.20;;;;;;;14.35;45.74;101785.47;4922765;28;20055;-82
2022/11/26 11:55:01;;;;;;;1.15;0.80;;;;;;;14.40;45.96;101790.13;4950622;28;20053;-93